Time;durP1;ratioP1;P1;durP2;ratioP2;P2;SDS_P1;SDS_P2;PMS_P1;PMS_P2;Temp;Humidity;BMP_temperature;BMP_pressure;BME280_temperature;BME280_humidity;BME280_pressure;Samples;Min_cycle;Max_cycle;Signal;HPM_P1;HPM_P2
2022/06/30 00:01:21;;;;;;;11.63;10.05;;;;;;;20.12;100.00;98128.63;15288630;19;20367;-53
2022/06/30 00:06:26;;;;;;;12.00;10.43;;;;;;;20.14;100.00;98144.84;15284419;19;20057;-55
2022/06/30 00:11:31;;;;;;;12.85;10.35;;;;;;;20.14;100.00;98153.03;15289201;19;20014;-54
2022/06/30 00:16:39;;;;;;;11.43;10.10;;;;;;;20.14;100.00;98148.41;15278536;19;20042;-56
2022/06/30 00:21:45;;;;;;;10.30;9.02;;;;;;;20.12;100.00;98141.50;15288393;19;20014;-52
2022/06/30 00:26:50;;;;;;;11.93;10.52;;;;;;;20.11;100.00;98140.66;15285705;19;20018;-52
2022/06/30 00:31:58;;;;;;;11.07;9.88;;;;;;;20.06;100.00;98142.41;15285302;19;20659;-57
2022/06/30 00:37:03;;;;;;;13.10;10.38;;;;;;;20.04;100.00;98139.09;15283127;19;20769;-54
2022/06/30 00:42:09;;;;;;;12.27;10.50;;;;;;;20.00;100.00;98145.00;15280950;19;20018;-51
2022/06/30 00:47:16;;;;;;;16.33;10.98;;;;;;;19.93;100.00;98140.69;15276880;19;20014;-53
2022/06/30 00:52:23;;;;;;;15.70;11.63;;;;;;;19.90;100.00;98131.03;15284453;19;20015;-52
2022/06/30 00:57:38;;;;;;;12.85;11.25;;;;;;;19.89;100.00;98121.16;15278524;19;20011;-52
2022/06/30 01:02:46;;;;;;;13.27;11.30;;;;;;;19.83;100.00;98120.16;15286288;19;20006;-55
2022/06/30 01:07:52;;;;;;;12.73;10.27;;;;;;;19.83;100.00;98122.91;15281567;19;20019;-56
2022/06/30 01:12:58;;;;;;;11.70;10.50;;;;;;;19.81;100.00;98116.00;15279293;19;20014;-56
2022/06/30 01:18:06;;;;;;;12.85;11.07;;;;;;;19.80;100.00;98123.34;15274282;19;20035;-55
2022/06/30 01:23:14;;;;;;;12.20;10.52;;;;;;;19.79;100.00;98124.41;15283951;19;20426;-56
2022/06/30 01:28:19;;;;;;;12.57;11.18;;;;;;;19.75;100.00;98127.81;15279982;19;20011;-56
2022/06/30 01:33:24;;;;;;;11.20;10.00;;;;;;;19.75;100.00;98127.81;15282948;19;20019;-56
2022/06/30 01:38:32;;;;;;;10.68;9.32;;;;;;;19.78;100.00;98119.19;15278126;19;20475;-56
2022/06/30 01:43:38;;;;;;;11.77;10.50;;;;;;;19.79;100.00;98118.94;15277200;19;20490;-55
2022/06/30 01:48:43;;;;;;;14.43;11.50;;;;;;;19.72;100.00;98118.19;15276927;19;20023;-58
2022/06/30 01:53:53;;;;;;;13.63;11.35;;;;;;;19.71;100.00;98111.88;15280502;19;20035;-55
2022/06/30 01:58:58;;;;;;;14.93;11.93;;;;;;;19.70;100.00;98110.19;15277700;19;20017;-58
2022/06/30 02:09:25;;;;;;;14.23;11.07;;;;;;;19.63;100.00;98098.53;15282062;19;20019;-57
2022/06/30 02:14:30;;;;;;;12.75;10.20;;;;;;;19.64;100.00;98094.72;15279208;19;20010;-54
2022/06/30 02:19:36;;;;;;;12.45;11.07;;;;;;;19.63;100.00;98101.25;15276829;19;20054;-56
2022/06/30 02:24:43;;;;;;;12.98;11.18;;;;;;;19.64;100.00;98089.25;15272731;19;20022;-55
2022/06/30 02:29:49;;;;;;;14.30;11.15;;;;;;;19.56;100.00;98087.66;15280030;19;20010;-58
2022/06/30 02:34:56;;;;;;;14.50;11.40;;;;;;;19.58;100.00;98081.16;15278689;19;20070;-53
2022/06/30 02:40:04;;;;;;;12.73;10.90;;;;;;;19.59;100.00;98083.63;15277835;19;20066;-53
2022/06/30 02:45:12;;;;;;;16.38;12.80;;;;;;;19.57;100.00;98085.78;15276688;19;20248;-54
2022/06/30 02:50:17;;;;;;;14.63;11.80;;;;;;;19.56;100.00;98089.59;15270888;19;20014;-54
2022/06/30 02:55:25;;;;;;;14.90;12.63;;;;;;;19.57;100.00;98085.78;15270870;19;20473;-52
2022/06/30 03:00:31;;;;;;;14.13;12.43;;;;;;;19.55;100.00;98072.34;15276626;19;20385;-58
2022/06/30 03:05:36;;;;;;;14.40;12.07;;;;;;;19.53;100.00;98079.09;15272133;19;20053;-57
2022/06/30 03:10:43;;;;;;;15.98;13.00;;;;;;;19.49;100.00;98073.25;15276029;19;20015;-55
2022/06/30 03:15:50;;;;;;;14.82;12.00;;;;;;;19.42;100.00;98075.22;15271896;19;20002;-52
2022/06/30 03:20:56;;;;;;;16.30;13.25;;;;;;;19.37;100.00;98062.25;15268764;19;20471;-54
2022/06/30 03:26:05;;;;;;;17.77;14.25;;;;;;;19.32;100.00;98078.50;15267667;19;20094;-55
2022/06/30 03:31:11;;;;;;;18.70;13.88;;;;;;;19.34;100.00;98090.03;15273995;19;20026;-52
2022/06/30 03:36:23;;;;;;;16.23;13.32;;;;;;;19.35;100.00;98090.84;15273180;19;20604;-51
2022/06/30 03:41:31;;;;;;;16.95;13.30;;;;;;;19.34;100.00;98095.50;15274511;19;20015;-53
2022/06/30 03:46:37;;;;;;;19.40;15.30;;;;;;;19.38;100.00;98093.13;15272225;19;20019;-56
2022/06/30 03:51:43;;;;;;;17.33;14.23;;;;;;;19.42;100.00;98098.97;15272772;19;20140;-52
2022/06/30 03:56:52;;;;;;;17.65;14.30;;;;;;;19.39;100.00;98103.00;15267079;19;20006;-54
2022/06/30 04:01:59;;;;;;;18.83;14.48;;;;;;;19.42;100.00;98102.53;15264592;19;20019;-52
2022/06/30 04:07:04;;;;;;;23.77;16.13;;;;;;;19.38;100.00;98117.72;15272761;19;20038;-52
2022/06/30 04:12:12;;;;;;;19.05;15.15;;;;;;;19.38;100.00;98110.34;15271324;19;20014;-52
2022/06/30 04:17:18;;;;;;;20.60;15.40;;;;;;;19.37;100.00;98122.34;15272197;19;20034;-54
2022/06/30 04:22:26;;;;;;;20.08;15.88;;;;;;;19.36;100.00;98123.41;15272117;19;20573;-61
2022/06/30 04:27:34;;;;;;;20.80;15.60;;;;;;;19.40;100.00;98129.25;15277785;19;20014;-55
2022/06/30 04:32:40;;;;;;;19.23;15.40;;;;;;;19.43;100.00;98122.50;15280881;19;20031;-52
2022/06/30 04:37:45;;;;;;;20.40;15.35;;;;;;;19.46;100.00;98127.53;15282917;19;20014;-55
2022/06/30 04:42:53;;;;;;;19.13;15.25;;;;;;;19.46;100.00;98127.53;15286518;19;20602;-58
2022/06/30 04:47:58;;;;;;;22.98;16.10;;;;;;;19.46;100.00;98119.34;15281857;19;20030;-58
2022/06/30 04:53:04;;;;;;;18.98;14.13;;;;;;;19.49;100.00;98114.25;15286357;19;20093;-60
2022/06/30 04:58:11;;;;;;;18.20;14.68;;;;;;;19.48;100.00;98114.44;15277046;19;20015;-54
2022/06/30 05:03:17;;;;;;;18.92;14.65;;;;;;;19.50;100.00;98115.06;15278693;19;20359;-54
2022/06/30 05:08:22;;;;;;;18.60;14.43;;;;;;;19.49;100.00;98113.38;15280069;19;20022;-54
2022/06/30 05:13:30;;;;;;;18.15;14.32;;;;;;;19.51;100.00;98116.75;15285020;19;20002;-55
2022/06/30 05:18:36;;;;;;;20.77;15.38;;;;;;;19.52;100.00;98121.16;15281693;19;20015;-54
2022/06/30 05:26:28;;;;;;;18.70;14.05;;;;;;;19.55;100.00;98117.97;15279985;19;20466;-52
2022/06/30 05:29:09;;;;;;;17.75;13.80;;;;;;;19.60;100.00;98109.09;15264124;19;20097;-56
2022/06/30 05:34:14;;;;;;;18.48;13.15;;;;;;;19.63;100.00;98101.25;15273493;19;20011;-56
2022/06/30 05:39:20;;;;;;;15.27;12.55;;;;;;;19.71;100.00;98117.34;15273046;19;20010;-53
2022/06/30 05:44:28;;;;;;;17.30;12.98;;;;;;;19.82;100.00;98104.81;15284415;19;20078;-58
2022/06/30 05:49:33;;;;;;;15.95;12.65;;;;;;;19.88;100.00;98100.38;15282379;19;20382;-53
2022/06/30 05:54:38;;;;;;;15.93;12.50;;;;;;;19.97;100.00;98098.97;15280619;19;20015;-56
2022/06/30 05:59:46;;;;;;;13.40;10.90;;;;;;;20.05;100.00;98097.81;15282226;19;20119;-58
2022/06/30 06:04:50;;;;;;;17.60;10.70;;;;;;;20.19;100.00;98106.69;15277365;19;20019;-57
2022/06/30 06:09:56;;;;;;;13.68;11.07;;;;;;;20.28;100.00;98104.47;15276245;19;20654;-58
2022/06/30 06:15:13;;;;;;;12.60;9.93;;;;;;;20.37;100.00;98108.53;15280815;19;20038;-53
2022/06/30 06:20:20;;;;;;;12.77;9.40;;;;;;;20.51;100.00;98114.66;15280783;19;20494;-56
2022/06/30 06:25:25;;;;;;;10.80;8.98;;;;;;;20.63;100.00;98099.09;15278030;19;20029;-58
2022/06/30 06:30:33;;;;;;;11.85;10.10;;;;;;;20.61;100.00;98095.75;15281255;19;20025;-58
2022/06/30 06:35:38;;;;;;;12.45;9.75;;;;;;;20.78;100.00;98098.69;15274187;19;20035;-58
2022/06/30 06:40:44;;;;;;;10.82;8.43;;;;;;;20.85;100.00;98089.50;15272648;19;20014;-57
2022/06/30 06:45:51;;;;;;;12.18;9.10;;;;;;;20.98;100.00;98085.72;15278657;19;20013;-57
2022/06/30 06:50:57;;;;;;;9.30;7.80;;;;;;;21.20;100.00;98083.22;15277103;19;20073;-58
2022/06/30 06:56:02;;;;;;;7.85;6.88;;;;;;;21.49;100.00;98067.69;15277359;19;20090;-57
2022/06/30 07:01:11;;;;;;;8.25;7.32;;;;;;;21.70;100.00;98062.66;15277803;19;20014;-59
2022/06/30 07:06:16;;;;;;;7.57;6.32;;;;;;;21.83;100.00;98065.13;15271301;19;20132;-56
2022/06/30 07:11:21;;;;;;;8.32;6.45;;;;;;;22.00;100.00;98064.38;15269843;19;20010;-53
2022/06/30 07:16:28;;;;;;;8.35;6.57;;;;;;;22.12;100.00;98067.91;15276104;19;20015;-57
2022/06/30 07:21:33;;;;;;;7.45;6.13;;;;;;;22.17;100.00;98075.38;15274837;19;20018;-57
2022/06/30 07:32:24;;;;;;;6.82;5.60;;;;;;;22.19;100.00;98075.13;15274421;19;19998;-55
2022/06/30 07:37:33;;;;;;;7.00;6.10;;;;;;;22.25;100.00;98060.44;15274257;19;20018;-55
2022/06/30 07:42:39;;;;;;;7.80;6.43;;;;;;;22.34;100.00;98058.97;15270120;19;20094;-56
2022/06/30 07:47:48;;;;;;;7.57;6.35;;;;;;;22.33;100.00;98060.03;15266083;19;20010;-55
2022/06/30 07:52:53;;;;;;;6.25;5.47;;;;;;;22.44;100.00;98052.84;15274238;19;20038;-53
2022/06/30 07:57:58;;;;;;;6.90;6.20;;;;;;;22.43;100.00;98051.19;15272100;19;20038;-56
2022/06/30 08:03:07;;;;;;;7.18;6.30;;;;;;;22.48;100.00;98048.50;15289718;19;20010;-57
2022/06/30 08:08:12;;;;;;;8.00;7.03;;;;;;;22.44;100.00;98045.44;15285279;19;20030;-56
2022/06/30 08:13:17;;;;;;;8.15;6.40;;;;;;;22.51;100.00;98048.03;15282689;19;20023;-57
2022/06/30 08:18:25;;;;;;;8.68;6.22;;;;;;;22.55;100.00;98046.47;15278142;19;20337;-58
2022/06/30 08:23:30;;;;;;;6.80;6.07;;;;;;;22.62;100.00;98043.56;15286468;19;20018;-56
2022/06/30 08:28:35;;;;;;;8.80;6.22;;;;;;;22.70;100.00;98043.13;15285707;19;20010;-58
2022/06/30 08:33:47;;;;;;;7.32;6.63;;;;;;;22.67;100.00;98045.53;15289301;19;20070;-59
2022/06/30 08:38:53;;;;;;;6.35;5.45;;;;;;;22.85;100.00;98048.03;15283222;19;20026;-57
2022/06/30 08:43:59;;;;;;;7.07;5.13;;;;;;;23.09;100.00;98048.69;15282436;19;20030;-58
2022/06/30 08:49:08;;;;;;;7.07;5.45;;;;;;;23.29;100.00;98043.72;15273411;19;20046;-57
2022/06/30 08:54:16;;;;;;;6.18;5.10;;;;;;;23.42;100.00;98037.06;15287831;19;20016;-58
2022/06/30 08:59:24;;;;;;;6.82;4.85;;;;;;;23.67;100.00;98037.38;15282075;19;20006;-53
2022/06/30 09:04:36;;;;;;;6.10;5.05;;;;;;;23.93;100.00;98034.91;15285301;19;20061;-57
2022/06/30 09:09:40;;;;;;;6.03;5.15;;;;;;;23.96;100.00;98034.44;15284133;19;20015;-54
2022/06/30 09:14:48;;;;;;;5.63;4.97;;;;;;;24.12;100.00;98029.09;15285489;19;20042;-56
2022/06/30 09:20:00;;;;;;;6.13;4.90;;;;;;;24.12;100.00;98037.34;15272977;19;20506;-57
2022/06/30 09:25:07;;;;;;;5.75;4.50;;;;;;;24.26;100.00;98026.75;15283790;19;20014;-55
2022/06/30 09:30:15;;;;;;;6.40;4.80;;;;;;;24.50;100.00;98027.25;15284801;19;20443;-57
2022/06/30 09:35:25;;;;;;;8.40;4.40;;;;;;;24.73;100.00;98031.59;15283120;19;20388;-57
2022/06/30 09:40:32;;;;;;;4.90;4.05;;;;;;;24.98;100.00;98023.78;15277225;19;20010;-54
2022/06/30 09:45:41;;;;;;;7.18;4.55;;;;;;;25.15;100.00;98010.66;15283083;19;20034;-56
2022/06/30 09:50:58;;;;;;;5.07;4.03;;;;;;;25.40;100.00;98011.88;15278686;19;20093;-55
2022/06/30 09:56:13;;;;;;;5.57;3.92;;;;;;;25.79;100.00;98003.25;15274833;19;20393;-57
2022/06/30 10:01:19;;;;;;;5.70;4.10;;;;;;;26.07;100.00;97992.81;15280801;19;20015;-55
2022/06/30 10:06:27;;;;;;;6.35;4.25;;;;;;;25.76;100.00;97986.38;15281534;19;20019;-55
2022/06/30 10:11:32;;;;;;;5.97;4.00;;;;;;;25.66;100.00;97988.03;15280701;19;20007;-54
2022/06/30 10:16:41;;;;;;;7.05;4.38;;;;;;;25.61;100.00;97970.63;15279196;19;20507;-56
2022/06/30 10:21:50;;;;;;;5.60;3.80;;;;;;;25.71;100.00;97978.13;15273374;19;20014;-54
2022/06/30 10:32:27;;;;;;;4.63;3.73;;;;;;;25.63;100.00;97968.44;15270325;19;20006;-57
2022/06/30 10:37:43;;;;;;;3.90;3.35;;;;;;;25.85;100.00;97959.94;15269369;19;20015;-56
2022/06/30 10:42:50;;;;;;;5.18;3.88;;;;;;;25.83;100.00;97960.19;15271109;19;20014;-55
2022/06/30 10:47:58;;;;;;;4.68;3.72;;;;;;;25.65;100.00;97957.97;15276470;19;20273;-58
2022/06/30 10:53:10;;;;;;;7.50;3.70;;;;;;;25.82;100.00;97953.03;15274244;19;20349;-55
2022/06/30 10:58:16;;;;;;;3.97;3.22;;;;;;;26.06;100.00;97952.50;15269611;19;20014;-54
2022/06/30 11:04:00;;;;;;;4.15;3.15;;;;;;;25.97;100.00;97943.97;15279048;19;20364;-56
2022/06/30 11:09:08;;;;;;;3.60;2.80;;;;;;;26.34;100.00;97942.06;15275774;19;20106;-57
2022/06/30 11:14:27;;;;;;;3.42;3.00;;;;;;;26.58;100.00;97935.97;15272701;19;20010;-56
2022/06/30 11:19:34;;;;;;;3.58;3.03;;;;;;;26.82;100.00;97921.59;15275063;19;20010;-58
2022/06/30 11:24:45;;;;;;;3.15;2.63;;;;;;;26.94;100.00;97911.06;15268847;19;20042;-58
2022/06/30 11:29:50;;;;;;;;;;;;;;;27.31;100.00;97914.50;15269522;19;20025;-57
2022/06/30 11:34:57;;;;;;;4.75;2.47;;;;;;;27.55;100.00;97913.84;15275319;19;19919;-56
2022/06/30 11:40:08;;;;;;;5.03;2.50;;;;;;;27.61;100.00;97913.53;15274082;19;20475;-57
2022/06/30 11:45:18;;;;;;;3.05;2.60;;;;;;;27.89;100.00;97902.84;15276537;19;20014;-58
2022/06/30 11:50:24;;;;;;;3.83;2.60;;;;;;;27.87;100.00;97899.53;15279864;19;20504;-59
2022/06/30 11:55:32;;;;;;;3.67;2.20;;;;;;;28.14;100.00;97893.53;15278844;19;20021;-58
2022/06/30 12:00:37;;;;;;;3.90;2.63;;;;;;;28.44;100.00;97890.78;15270525;19;20046;-57
2022/06/30 12:05:43;;;;;;;2.63;2.42;;;;;;;28.70;100.00;97885.00;15273324;19;20015;-56
2022/06/30 12:10:51;;;;;;;3.20;2.40;;;;;;;28.80;100.00;97893.22;15282402;19;20019;-59
2022/06/30 12:15:56;;;;;;;2.92;2.40;;;;;;;29.31;100.00;97889.00;15283710;19;20010;-57
2022/06/30 12:21:03;;;;;;;4.47;2.83;;;;;;;28.84;100.00;97885.97;15278982;19;20046;-60
2022/06/30 12:26:13;;;;;;;3.53;2.33;;;;;;;28.13;100.00;97874.47;15285684;19;20054;-53
2022/06/30 12:31:28;;;;;;;3.97;2.70;;;;;;;28.45;100.00;97892.44;15279166;19;20019;-58
2022/06/30 12:36:36;;;;;;;2.97;2.20;;;;;;;28.56;100.00;97877.38;15277471;19;20366;-53
2022/06/30 12:41:44;;;;;;;3.80;2.40;;;;;;;28.98;100.00;97872.22;15280020;19;20026;-58
2022/06/30 12:46:49;;;;;;;3.45;2.10;;;;;;;29.18;100.00;97865.59;15287096;19;20246;-60
2022/06/30 12:51:54;;;;;;;3.40;2.30;;;;;;;29.72;100.00;97845.97;15294428;19;20032;-53
2022/06/30 12:57:11;;;;;;;2.28;2.00;;;;;;;30.12;99.20;97846.47;15287785;19;20073;-60
2022/06/30 13:02:17;;;;;;;2.92;1.88;;;;;;;30.42;94.42;97847.03;15285604;19;20636;-58
2022/06/30 13:07:22;;;;;;;5.60;1.95;;;;;;;30.54;87.06;97846.59;15281255;19;20403;-56
2022/06/30 13:12:30;;;;;;;3.83;1.90;;;;;;;30.17;87.86;97844.72;15287599;19;20046;-59
2022/06/30 13:17:35;;;;;;;4.05;1.92;;;;;;;30.50;87.31;97839.13;15283985;19;20015;-58
2022/06/30 13:22:40;;;;;;;3.28;1.90;;;;;;;30.75;88.16;97833.09;15288909;19;20034;-60
2022/06/30 13:27:48;;;;;;;2.75;2.00;;;;;;;31.22;87.11;97834.97;15285050;19;20010;-58
2022/06/30 13:32:53;;;;;;;2.88;2.00;;;;;;;31.24;86.92;97832.66;15241851;19;20122;-58
2022/06/30 13:37:58;;;;;;;5.25;2.00;;;;;;;30.89;83.22;97824.75;15272589;19;20015;-56
2022/06/30 13:43:06;;;;;;;4.25;2.00;;;;;;;30.86;85.46;97830.94;15288315;19;20482;-57
2022/06/30 13:48:11;;;;;;;4.63;2.25;;;;;;;30.91;87.66;97832.78;15284234;19;20482;-55
2022/06/30 13:53:17;;;;;;;3.90;1.90;;;;;;;30.95;86.04;97846.88;15286158;19;20018;-54
2022/06/30 13:58:24;;;;;;;12.48;2.50;;;;;;;30.26;100.00;97865.13;15284255;19;20094;-57
2022/06/30 14:03:29;;;;;;;4.47;1.30;;;;;;;29.22;100.00;97877.72;15288019;19;20025;-57
2022/06/30 14:08:35;;;;;;;3.22;1.17;;;;;;;27.55;100.00;97887.03;15275546;19;20028;-56
2022/06/30 14:13:43;;;;;;;2.80;1.25;;;;;;;25.95;100.00;97890.97;15277409;19;20050;-56
2022/06/30 14:18:48;;;;;;;4.05;1.95;;;;;;;24.86;100.00;97892.56;15258673;19;20017;-55
2022/06/30 14:23:53;;;;;;;2.80;1.60;;;;;;;23.81;100.00;97904.97;15282210;19;20043;-58
2022/06/30 14:29:04;;;;;;;3.25;1.60;;;;;;;23.50;100.00;97913.72;14771860;19;10001772;-57
2022/06/30 14:34:10;;;;;;;2.67;1.60;;;;;;;23.58;100.00;97887.66;15282390;19;20021;-56
2022/06/30 14:39:16;;;;;;;3.05;1.90;;;;;;;23.15;100.00;97886.63;15275628;19;20069;-54
2022/06/30 14:44:25;;;;;;;3.70;1.70;;;;;;;23.33;100.00;97878.09;15276914;19;20499;-55
2022/06/30 14:49:32;;;;;;;3.38;1.50;;;;;;;23.34;100.00;97874.22;15282980;19;20007;-57
2022/06/30 14:54:37;;;;;;;2.40;1.70;;;;;;;23.26;100.00;97888.44;15280725;19;20508;-56
2022/06/30 14:59:45;;;;;;;4.20;1.92;;;;;;;22.95;100.00;97877.06;15277538;19;20086;-54
2022/06/30 15:04:50;;;;;;;3.65;1.92;;;;;;;23.15;100.00;97883.88;15279318;19;20464;-53
2022/06/30 15:09:55;;;;;;;3.03;2.03;;;;;;;23.18;100.00;97888.88;15274841;19;20015;-56
2022/06/30 15:15:06;;;;;;;4.18;2.20;;;;;;;23.40;100.00;97883.38;15271420;19;20034;-56
2022/06/30 15:20:15;;;;;;;3.40;2.00;;;;;;;23.68;100.00;97868.53;15275816;19;20018;-58
2022/06/30 15:25:21;;;;;;;3.60;2.05;;;;;;;24.10;100.00;97856.00;15277385;19;20026;-56
2022/06/30 15:30:29;;;;;;;3.75;2.30;;;;;;;24.60;100.00;97853.84;15278835;19;21277;-58
2022/06/30 15:35:35;;;;;;;5.10;2.10;;;;;;;25.07;100.00;97843.88;15271523;19;20018;-60
2022/06/30 15:40:43;;;;;;;5.38;2.00;;;;;;;26.04;100.00;97819.50;15273909;19;20374;-56
2022/06/30 15:45:52;;;;;;;5.78;2.13;;;;;;;27.02;100.00;97805.41;15270401;19;20023;-58
2022/06/30 15:50:57;;;;;;;3.63;2.60;;;;;;;27.84;100.00;97800.47;15271190;19;20023;-59
2022/06/30 15:56:06;;;;;;;3.25;2.33;;;;;;;28.51;100.00;97793.47;15274758;19;20021;-60
2022/06/30 16:01:14;;;;;;;3.88;2.35;;;;;;;29.11;100.00;97781.09;15273954;19;20010;-60
2022/06/30 16:06:21;;;;;;;4.72;2.42;;;;;;;29.66;100.00;97777.81;15275710;19;20018;-56
2022/06/30 16:11:27;;;;;;;4.50;2.35;;;;;;;29.96;100.00;97775.66;15275674;19;20011;-58
2022/06/30 16:16:35;;;;;;;5.57;2.30;;;;;;;30.35;100.00;97768.81;15268996;19;20003;-59
2022/06/30 16:21:40;;;;;;;3.97;2.33;;;;;;;30.70;100.00;97765.63;15269422;19;20022;-58
2022/06/30 16:26:48;;;;;;;2.97;2.30;;;;;;;30.87;100.00;97760.28;15287864;19;20015;-60
2022/06/30 16:31:56;;;;;;;3.80;2.10;;;;;;;31.01;100.00;97760.25;15288340;19;20039;-58
2022/06/30 16:37:01;;;;;;;4.13;2.60;;;;;;;30.99;100.00;97768.06;15287898;19;20022;-59
2022/06/30 16:42:10;;;;;;;3.10;2.15;;;;;;;31.07;100.00;97771.25;15285035;19;20015;-60
2022/06/30 16:47:18;;;;;;;3.78;2.30;;;;;;;30.96;100.00;97765.94;15281630;19;20030;-57
2022/06/30 16:52:24;;;;;;;4.05;2.13;;;;;;;31.05;100.00;97766.00;15280806;19;20018;-57
2022/06/30 16:57:30;;;;;;;3.72;2.08;;;;;;;31.35;100.00;97778.41;15286549;19;20010;-58
2022/06/30 17:02:38;;;;;;;2.95;2.00;;;;;;;31.37;100.00;97783.69;15280917;19;20019;-55
2022/06/30 17:07:45;;;;;;;2.30;1.70;;;;;;;31.64;100.00;97793.06;15285125;19;20018;-56
2022/06/30 17:12:51;;;;;;;2.67;1.90;;;;;;;31.84;100.00;97777.84;15286923;19;20720;-55
2022/06/30 17:17:59;;;;;;;2.83;1.60;;;;;;;31.76;100.00;97778.59;15286238;19;20348;-57
2022/06/30 17:23:04;;;;;;;2.88;1.58;;;;;;;31.75;100.00;97785.31;15274301;19;20083;-57
2022/06/30 17:28:09;;;;;;;2.63;1.50;;;;;;;31.46;100.00;97778.19;15284051;19;20386;-57
2022/06/30 17:33:18;;;;;;;5.63;1.50;;;;;;;31.40;100.00;97785.00;15284538;19;20021;-59
2022/06/30 17:38:23;;;;;;;3.03;1.42;;;;;;;31.39;100.00;97770.28;15280977;19;20587;-57
2022/06/30 17:43:30;;;;;;;2.88;1.45;;;;;;;30.82;100.00;97754.81;15283477;19;20489;-57
2022/06/30 17:48:39;;;;;;;2.95;1.50;;;;;;;30.62;100.00;97749.69;15281670;19;20010;-58
2022/06/30 17:53:44;;;;;;;4.10;1.50;;;;;;;30.43;100.00;97753.38;15282561;19;20021;-60
2022/06/30 17:58:49;;;;;;;4.68;1.50;;;;;;;30.17;100.00;97753.03;15272319;19;20018;-59
2022/06/30 18:03:57;;;;;;;2.67;1.40;;;;;;;29.95;100.00;97737.91;15282924;19;20010;-58
2022/06/30 18:14:23;;;;;;;2.75;1.30;;;;;;;29.54;100.00;97733.84;15281198;19;20039;-62
2022/06/30 18:19:30;;;;;;;2.08;1.10;;;;;;;29.30;100.00;97733.94;15282518;19;20014;-62
2022/06/30 18:24:36;;;;;;;3.55;1.30;;;;;;;28.79;100.00;97741.88;15278644;19;20006;-65
2022/06/30 18:29:41;;;;;;;2.60;1.40;;;;;;;28.55;100.00;97745.47;15276242;19;20010;-62
2022/06/30 18:34:50;;;;;;;4.10;1.30;;;;;;;28.51;100.00;97749.97;15282980;19;20371;-60
2022/06/30 18:39:55;;;;;;;2.22;1.30;;;;;;;28.30;100.00;97747.44;15281708;19;20006;-61
2022/06/30 18:45:02;;;;;;;3.72;1.55;;;;;;;27.94;100.00;97744.19;15278264;19;20126;-60
2022/06/30 18:50:11;;;;;;;3.78;1.40;;;;;;;27.58;100.00;97745.34;15282230;19;20006;-57
2022/06/30 18:55:17;;;;;;;2.60;1.30;;;;;;;27.27;100.00;97745.56;15279499;19;20017;-59
2022/06/30 19:00:22;;;;;;;2.53;1.40;;;;;;;26.95;100.00;97754.31;15270790;19;20007;-54
2022/06/30 19:05:31;;;;;;;3.30;1.50;;;;;;;26.81;100.00;97762.41;15279165;19;20023;-61
2022/06/30 19:10:38;;;;;;;2.65;1.60;;;;;;;26.64;100.00;97768.28;15280430;19;20475;-62
2022/06/30 19:15:43;;;;;;;3.22;1.75;;;;;;;26.43;100.00;97774.69;15277959;19;20019;-60
2022/06/30 19:20:53;;;;;;;3.53;1.67;;;;;;;26.30;100.00;97776.13;15279910;19;20023;-58
2022/06/30 19:26:01;;;;;;;4.47;1.90;;;;;;;26.10;100.00;97788.03;15275360;19;20014;-59
2022/06/30 19:31:07;;;;;;;3.63;1.90;;;;;;;25.91;100.00;97790.50;15275194;19;20027;-59
2022/06/30 19:36:15;;;;;;;3.30;1.88;;;;;;;25.77;100.00;97792.16;15267870;19;20027;-59
2022/06/30 19:41:20;;;;;;;5.35;2.00;;;;;;;25.66;100.00;97805.16;15253638;19;20356;-59
2022/06/30 19:46:34;;;;;;;4.45;2.00;;;;;;;25.61;100.00;97825.28;15274273;19;20502;-61
2022/06/30 19:51:42;;;;;;;3.65;2.10;;;;;;;25.57;100.00;97820.59;15278216;19;20102;-61
2022/06/30 19:56:48;;;;;;;4.50;2.20;;;;;;;25.42;100.00;97822.22;15280725;19;20010;-59
2022/06/30 20:01:53;;;;;;;3.65;2.20;;;;;;;25.28;100.00;97826.56;15284436;19;20034;-63
2022/06/30 20:11:26;;;;;;;3.67;2.25;;;;;;;25.13;100.00;97819.91;15284070;19;20015;-59
2022/06/30 20:12:29;;;;;;;4.00;2.42;;;;;;;24.99;100.00;97824.28;15289231;19;20019;-58
2022/06/30 20:17:34;;;;;;;3.25;2.05;;;;;;;24.87;100.00;97799.72;15285279;19;20014;-55
2022/06/30 20:22:43;;;;;;;3.90;2.38;;;;;;;24.80;100.00;97793.63;15280349;19;20413;-56
2022/06/30 20:27:49;;;;;;;5.93;2.40;;;;;;;24.69;100.00;97788.09;15288289;19;20014;-58
2022/06/30 20:32:54;;;;;;;4.40;2.53;;;;;;;24.68;100.00;97785.56;15286853;19;20042;-59
2022/06/30 20:38:03;;;;;;;4.40;2.58;;;;;;;24.62;100.00;97780.06;15282612;19;20010;-59
2022/06/30 20:43:08;;;;;;;3.40;2.50;;;;;;;24.57;100.00;97769.00;15286987;19;20006;-59
2022/06/30 20:53:36;;;;;;;3.38;2.80;;;;;;;24.46;100.00;97770.88;15286994;19;20043;-60
2022/06/30 20:58:42;;;;;;;7.53;2.70;;;;;;;24.37;100.00;97769.72;15262487;19;20014;-60
2022/06/30 21:03:47;;;;;;;4.03;2.60;;;;;;;24.31;100.00;97763.38;15281351;19;20042;-60
2022/06/30 21:08:57;;;;;;;3.85;2.75;;;;;;;24.29;100.00;97762.81;15270903;19;20351;-61
2022/06/30 21:14:03;;;;;;;3.97;2.70;;;;;;;24.20;100.00;97758.91;15286769;19;20002;-59
2022/06/30 21:19:08;;;;;;;4.18;2.75;;;;;;;24.17;100.00;97781.44;15284561;19;20011;-60
2022/06/30 21:24:15;;;;;;;3.75;2.70;;;;;;;24.12;100.00;97784.19;15281886;19;20622;-61
2022/06/30 21:29:20;;;;;;;4.85;2.72;;;;;;;23.99;100.00;97785.47;15285989;19;20011;-61
2022/06/30 21:34:28;;;;;;;4.15;2.85;;;;;;;23.84;100.00;97783.41;15287502;19;20023;-61
2022/06/30 21:39:36;;;;;;;4.93;2.80;;;;;;;23.76;100.00;97781.97;15286402;19;20014;-60
2022/06/30 21:44:43;;;;;;;5.22;3.00;;;;;;;23.72;100.00;97791.84;15282954;19;20032;-60
2022/06/30 21:49:49;;;;;;;4.85;3.10;;;;;;;23.70;100.00;97799.53;15286002;19;20034;-58
2022/06/30 21:54:56;;;;;;;4.15;2.70;;;;;;;23.62;100.00;97805.50;15289130;19;20047;-59
2022/06/30 22:00:01;;;;;;;5.10;3.20;;;;;;;23.53;100.00;97811.47;15286069;19;20019;-59
2022/06/30 22:05:16;;;;;;;4.53;3.17;;;;;;;23.49;100.00;97809.50;15285582;19;20029;-59
2022/06/30 22:10:24;;;;;;;5.00;3.28;;;;;;;23.42;100.00;97815.22;15280049;19;20499;-57
2022/06/30 22:15:29;;;;;;;4.63;3.03;;;;;;;23.33;100.00;97814.03;15274849;19;20015;-57
2022/06/30 22:20:34;;;;;;;4.13;2.83;;;;;;;23.27;100.00;97799.41;15285323;19;20030;-59
2022/06/30 22:25:42;;;;;;;4.60;2.70;;;;;;;23.25;100.00;97798.84;15281833;19;20011;-61
2022/06/30 22:30:48;;;;;;;6.85;2.83;;;;;;;23.21;100.00;97787.53;15285156;19;20019;-60
2022/06/30 22:35:53;;;;;;;4.45;2.72;;;;;;;23.21;100.00;97787.53;15282643;19;20042;-60
2022/06/30 22:41:01;;;;;;;6.00;2.60;;;;;;;23.22;100.00;97791.13;15282910;19;20019;-59
2022/06/30 22:46:06;;;;;;;3.08;2.40;;;;;;;23.18;100.00;97770.72;15269245;19;20010;-59
2022/06/30 22:51:11;;;;;;;2.63;2.40;;;;;;;23.17;100.00;97789.09;15281551;19;20002;-59
2022/06/30 22:56:20;;;;;;;3.47;2.53;;;;;;;23.15;100.00;97790.47;15279908;19;20086;-57
2022/06/30 23:01:27;;;;;;;4.72;2.85;;;;;;;23.13;100.00;97787.13;15280536;19;20121;-56
2022/06/30 23:06:31;;;;;;;4.35;2.40;;;;;;;23.13;100.00;97790.72;15280410;19;20349;-58
2022/06/30 23:11:39;;;;;;;4.25;2.58;;;;;;;23.11;100.00;97800.31;15282801;19;20007;-58
2022/06/30 23:16:44;;;;;;;3.80;2.25;;;;;;;23.02;100.00;97799.94;15274964;19;20007;-58
2022/06/30 23:21:52;;;;;;;3.35;2.15;;;;;;;23.05;100.00;97803.00;15270571;19;20407;-58
2022/06/30 23:27:00;;;;;;;4.07;1.90;;;;;;;23.05;100.00;97805.75;15279171;19;20018;-57
2022/06/30 23:32:06;;;;;;;2.60;1.90;;;;;;;23.06;100.00;97807.41;15277179;19;20017;-56
2022/06/30 23:37:11;;;;;;;3.28;2.17;;;;;;;23.04;100.00;97801.34;15277873;19;20050;-57
2022/06/30 23:42:20;;;;;;;4.15;2.33;;;;;;;23.03;100.00;97798.88;15275880;19;20011;-55
2022/06/30 23:47:25;;;;;;;3.53;2.20;;;;;;;23.01;100.00;97812.84;15273177;19;20353;-54
2022/06/30 23:52:30;;;;;;;3.22;1.90;;;;;;;22.97;100.00;97814.47;15015327;19;5001966;-59